Time;durP1;ratioP1;P1;durP2;ratioP2;P2;SDS_P1;SDS_P2;PMS_P1;PMS_P2;Temp;Humidity;BMP_temperature;BMP_pressure;BME280_temperature;BME280_humidity;BME280_pressure;Samples;Min_cycle;Max_cycle;Signal;HPM_P1;HPM_P2
2023/06/05 00:01:43;;;;;;;3.72;3.42;;;21.50;59.30;;;;;;4978861;28;20193;-67
2023/06/05 00:04:09;;;;;;;3.47;3.17;;;21.50;59.30;;;;;;4981568;28;20713;-66
2023/06/05 00:06:37;;;;;;;3.70;3.40;;;21.40;59.20;;;;;;4975180;28;20673;-67
2023/06/05 00:09:04;;;;;;;3.40;3.10;;;21.40;59.20;;;;;;4996373;28;20218;-66
2023/06/05 00:11:30;;;;;;;3.60;3.30;;;21.40;59.80;;;;;;4976577;28;20228;-67
2023/06/05 00:13:56;;;;;;;3.58;3.25;;;21.40;59.20;;;;;;4992642;28;20195;-66
2023/06/05 00:16:22;;;;;;;3.70;3.40;;;21.40;59.20;;;;;;4975299;28;20193;-66
2023/06/05 00:18:48;;;;;;;4.05;3.65;;;21.40;59.20;;;;;;5000928;28;20222;-65
2023/06/05 00:21:19;;;;;;;3.80;3.40;;;21.40;59.30;;;;;;4979902;28;20197;-67
2023/06/05 00:23:45;;;;;;;4.15;3.75;;;21.40;59.20;;;;;;4988047;28;20300;-68
2023/06/05 00:26:11;;;;;;;3.63;3.20;;;21.40;59.20;;;;;;5004368;28;20189;-68
2023/06/05 00:28:38;;;;;;;3.90;3.45;;;21.40;59.20;;;;;;5001289;28;20223;-67
2023/06/05 00:31:06;;;;;;;4.32;3.92;;;21.40;59.20;;;;;;4976180;28;20182;-66
2023/06/05 00:33:32;;;;;;;3.60;3.08;;;21.40;59.30;;;;;;4979696;28;20205;-68
2023/06/05 00:35:57;;;;;;;3.55;3.25;;;21.40;59.30;;;;;;4991910;28;20649;-68
2023/06/05 00:38:24;;;;;;;3.72;3.40;;;21.40;59.30;;;;;;4969235;28;20260;-67
2023/06/05 00:40:50;;;;;;;3.90;3.60;;;21.40;59.30;;;;;;4982700;28;20205;-68
2023/06/05 00:43:17;;;;;;;3.70;3.40;;;21.40;59.30;;;;;;4987068;28;20228;-67
2023/06/05 00:45:43;;;;;;;3.67;3.35;;;21.40;59.40;;;;;;5003116;28;20192;-67
2023/06/05 00:48:10;;;;;;;3.72;3.42;;;21.40;59.30;;;;;;4986624;28;20461;-67
2023/06/05 00:50:37;;;;;;;3.95;3.55;;;21.40;59.30;;;;;;4981951;28;20190;-67
2023/06/05 00:53:06;;;;;;;3.63;3.33;;;21.40;59.40;;;;;;4983771;28;20197;-67
2023/06/05 00:55:32;;;;;;;4.25;3.85;;;21.40;59.30;;;;;;4987804;28;20188;-67
2023/06/05 00:58:01;;;;;;;3.58;3.28;;;21.40;59.40;;;;;;4983690;28;20230;-67
2023/06/05 01:00:27;;;;;;;3.75;3.45;;;21.40;59.40;;;;;;4975215;28;20692;-68
2023/06/05 01:02:56;;;;;;;3.60;3.30;;;21.40;59.40;;;;;;4990228;28;20213;-67
2023/06/05 01:05:23;;;;;;;3.65;3.35;;;21.40;59.40;;;;;;4991444;28;20190;-67
2023/06/05 01:07:50;;;;;;;3.38;3.08;;;21.40;59.40;;;;;;4989852;28;20228;-67
2023/06/05 01:10:17;;;;;;;4.28;3.88;;;21.30;59.30;;;;;;4984219;28;20239;-67
2023/06/05 01:13:17;;;;;;;3.70;3.40;;;21.40;59.40;;;;;;4980906;28;20678;-67
2023/06/05 01:15:44;;;;;;;3.70;3.40;;;21.30;59.30;;;;;;4977667;28;20268;-67
2023/06/05 01:18:11;;;;;;;3.78;3.47;;;21.40;59.40;;;;;;4982678;28;20224;-67
2023/06/05 01:20:41;;;;;;;3.72;3.42;;;21.40;59.40;;;;;;4986141;28;20193;-67
2023/06/05 01:23:10;;;;;;;4.05;3.70;;;21.40;59.40;;;;;;4978406;28;20209;-67
2023/06/05 01:25:37;;;;;;;3.78;3.47;;;21.30;59.30;;;;;;4999039;28;20281;-67
2023/06/05 01:28:12;;;;;;;4.18;3.58;;;21.30;59.30;;;;;;4974824;28;20205;-67
2023/06/05 01:31:00;;;;;;;3.83;3.53;;;21.30;59.40;;;;;;4981080;28;20204;-67
2023/06/05 01:33:44;;;;;;;3.65;3.35;;;21.30;59.30;;;;;;4982904;28;20197;-68
2023/06/05 01:36:14;;;;;;;4.25;3.80;;;21.30;59.30;;;;;;4992851;28;20204;-68
2023/06/05 01:38:42;;;;;;;3.67;3.38;;;21.30;59.30;;;;;;4982451;28;20221;-67
2023/06/05 01:41:11;;;;;;;3.58;3.28;;;21.30;59.30;;;;;;4984809;28;20184;-65
2023/06/05 01:43:38;;;;;;;3.83;3.30;;;21.30;59.30;;;;;;4982429;28;20713;-67
2023/06/05 01:46:09;;;;;;;3.67;3.38;;;21.30;59.30;;;;;;4985447;28;20321;-67
2023/06/05 01:48:35;;;;;;;4.05;3.70;;;21.30;59.30;;;;;;4998570;28;20289;-66
2023/06/05 01:51:01;;;;;;;3.40;3.10;;;21.30;59.40;;;;;;4998647;28;20214;-67
2023/06/05 01:53:29;;;;;;;3.65;3.35;;;21.30;59.30;;;;;;4993647;28;20185;-67
2023/06/05 01:55:56;;;;;;;3.90;3.60;;;21.30;59.30;;;;;;4993562;28;20193;-68
2023/06/05 01:58:24;;;;;;;3.13;2.88;;;21.30;59.30;;;;;;4982794;28;20719;-67
2023/06/05 02:00:52;;;;;;;3.75;3.45;;;21.30;59.30;;;;;;4971000;28;20277;-67
2023/06/05 02:03:19;;;;;;;3.63;3.28;;;21.30;59.40;;;;;;4965807;28;20220;-68
2023/06/05 02:05:45;;;;;;;3.50;3.28;;;21.30;59.40;;;;;;4989857;28;20189;-67
2023/06/05 02:08:13;;;;;;;3.60;3.30;;;21.30;59.40;;;;;;4992482;28;20629;-68
2023/06/05 02:10:42;;;;;;;3.72;3.40;;;21.20;59.30;;;;;;4986459;28;20192;-67
2023/06/05 02:13:09;;;;;;;3.72;3.42;;;21.20;59.30;;;;;;4992709;28;20653;-67
2023/06/05 02:15:35;;;;;;;3.80;3.50;;;21.30;59.30;;;;;;4985798;28;20189;-66
2023/06/05 02:18:02;;;;;;;4.10;3.72;;;21.30;59.40;;;;;;4982357;28;20689;-67
2023/06/05 02:20:29;;;;;;;3.90;3.60;;;21.30;59.40;;;;;;4990200;28;20185;-67
2023/06/05 02:22:55;;;;;;;3.58;3.30;;;21.30;59.40;;;;;;4986434;28;20221;-67
2023/06/05 02:25:25;;;;;;;3.83;3.35;;;21.20;59.30;;;;;;4981813;28;20255;-67
2023/06/05 02:27:51;;;;;;;3.75;3.45;;;21.30;59.30;;;;;;4981920;28;20277;-67
2023/06/05 02:30:18;;;;;;;3.40;3.10;;;21.30;59.30;;;;;;4983193;28;20182;-67
2023/06/05 02:32:43;;;;;;;3.65;3.35;;;21.20;59.20;;;;;;4974691;28;20200;-67
2023/06/05 02:35:11;;;;;;;4.00;3.15;;;21.30;59.30;;;;;;4981909;28;20185;-67
2023/06/05 02:37:43;;;;;;;3.45;3.15;;;21.20;59.20;;;;;;4985958;28;20205;-66
2023/06/05 02:40:11;;;;;;;3.80;3.22;;;21.20;59.20;;;;;;4992067;28;20185;-67
2023/06/05 02:42:38;;;;;;;3.33;3.03;;;21.20;59.20;;;;;;4992637;28;20181;-67
2023/06/05 02:45:05;;;;;;;3.47;3.17;;;21.20;59.20;;;;;;5009228;28;20181;-67
2023/06/05 02:47:31;;;;;;;2.92;2.70;;;21.20;59.20;;;;;;4981127;28;20206;-67
2023/06/05 02:49:59;;;;;;;3.53;3.22;;;21.20;59.30;;;;;;4997494;28;20186;-67
2023/06/05 02:52:24;;;;;;;3.33;3.05;;;21.20;59.20;;;;;;4981211;28;20212;-67
2023/06/05 02:54:52;;;;;;;3.08;2.88;;;21.20;59.20;;;;;;4987199;28;20189;-67
2023/06/05 02:57:18;;;;;;;3.30;3.00;;;21.20;59.10;;;;;;4974024;28;20248;-67
2023/06/05 02:59:46;;;;;;;3.20;2.90;;;21.20;59.20;;;;;;4986254;28;20180;-67
2023/06/05 03:02:16;;;;;;;2.97;2.78;;;21.20;59.10;;;;;;4983867;28;20220;-67
2023/06/05 03:04:48;;;;;;;3.15;2.95;;;21.20;59.10;;;;;;4989463;28;20245;-67
2023/06/05 03:07:16;;;;;;;3.00;2.75;;;21.20;59.10;;;;;;4990121;28;20210;-68
2023/06/05 03:09:42;;;;;;;3.35;3.05;;;21.20;59.10;;;;;;4984399;28;20203;-66
2023/06/05 03:12:08;;;;;;;3.28;2.97;;;21.20;59.00;;;;;;4984080;28;20609;-67
2023/06/05 03:14:34;;;;;;;3.33;3.03;;;21.20;59.00;;;;;;4992571;28;20250;-67
2023/06/05 03:17:00;;;;;;;2.83;2.63;;;21.20;59.00;;;;;;4985323;28;20217;-67
2023/06/05 03:19:27;;;;;;;3.25;3.00;;;21.20;59.00;;;;;;4975523;28;20661;-67
2023/06/05 03:21:55;;;;;;;3.50;3.20;;;21.20;59.00;;;;;;4978240;28;20204;-65
2023/06/05 03:24:24;;;;;;;3.00;2.80;;;21.20;59.00;;;;;;4988892;28;20228;-67
2023/06/05 03:26:53;;;;;;;3.97;3.17;;;21.20;59.30;;;;;;4980992;28;20285;-67
2023/06/05 03:29:20;;;;;;;3.08;2.88;;;21.20;59.00;;;;;;4990273;28;20194;-67
2023/06/05 03:31:46;;;;;;;3.20;2.90;;;21.20;59.00;;;;;;4987175;28;20193;-67
2023/06/05 03:34:12;;;;;;;2.75;2.55;;;21.20;59.00;;;;;;4991743;28;20196;-67
2023/06/05 03:36:39;;;;;;;3.65;2.97;;;21.20;59.00;;;;;;4976621;28;20215;-67
2023/06/05 03:39:07;;;;;;;2.80;2.60;;;21.20;59.00;;;;;;4991777;28;20228;-67
2023/06/05 03:41:35;;;;;;;2.95;2.70;;;21.20;59.10;;;;;;4960141;28;20260;-67
2023/06/05 03:44:03;;;;;;;2.97;2.78;;;21.20;59.00;;;;;;4983766;28;20213;-67
2023/06/05 03:46:31;;;;;;;3.20;2.90;;;21.20;59.00;;;;;;4989808;28;20192;-66
2023/06/05 03:49:01;;;;;;;3.08;2.88;;;21.20;59.10;;;;;;4993439;28;20751;-67
2023/06/05 03:51:30;;;;;;;3.13;2.83;;;21.20;59.00;;;;;;4988449;28;20243;-67
2023/06/05 03:54:00;;;;;;;3.45;3.15;;;21.20;59.00;;;;;;4986628;28;20223;-67
2023/06/05 03:56:49;;;;;;;3.00;2.80;;;21.20;59.00;;;;;;4991708;28;20228;-67
2023/06/05 03:59:19;;;;;;;2.97;2.78;;;21.20;58.90;;;;;;4975412;28;20249;-66
2023/06/05 04:01:49;;;;;;;2.90;2.70;;;21.10;59.00;;;;;;4991935;28;20236;-67
2023/06/05 04:04:15;;;;;;;3.38;3.08;;;21.20;59.00;;;;;;4982925;28;20212;-67
2023/06/05 04:06:41;;;;;;;3.42;3.13;;;21.20;59.00;;;;;;4988338;28;20196;-67
2023/06/05 04:09:11;;;;;;;2.97;2.75;;;21.20;59.00;;;;;;4994842;28;20217;-67
2023/06/05 04:11:41;;;;;;;2.72;2.53;;;21.20;59.00;;;;;;4984371;28;20196;-67
2023/06/05 04:14:07;;;;;;;2.80;2.60;;;21.20;59.00;;;;;;4995901;28;20233;-67
2023/06/05 04:16:34;;;;;;;3.15;2.80;;;21.10;59.60;;;;;;4979693;28;20189;-67
2023/06/05 04:19:01;;;;;;;2.88;2.50;;;21.20;59.10;;;;;;4977742;28;20641;-68
2023/06/05 04:21:27;;;;;;;2.60;2.40;;;21.20;59.00;;;;;;4991210;28;20197;-67
2023/06/05 04:23:54;;;;;;;2.83;2.63;;;21.20;59.00;;;;;;4976241;28;20361;-67
2023/06/05 04:26:20;;;;;;;2.70;2.50;;;21.20;59.00;;;;;;4985021;28;20732;-67
2023/06/05 04:28:50;;;;;;;2.83;2.60;;;21.20;59.00;;;;;;4966502;28;20217;-67
2023/06/05 04:31:16;;;;;;;2.90;2.70;;;21.20;59.00;;;;;;4992208;28;20228;-67
2023/06/05 04:33:43;;;;;;;3.20;2.72;;;21.10;59.00;;;;;;4996062;28;20192;-67
2023/06/05 04:36:09;;;;;;;2.90;2.70;;;21.10;58.90;;;;;;4963482;28;20197;-67
2023/06/05 04:38:34;;;;;;;3.00;2.80;;;21.10;58.90;;;;;;5007879;28;20214;-66
2023/06/05 04:41:01;;;;;;;3.10;2.90;;;21.20;59.00;;;;;;4981989;28;20208;-67
2023/06/05 04:43:27;;;;;;;3.33;2.63;;;21.20;58.90;;;;;;4992996;28;20209;-67
2023/06/05 04:45:53;;;;;;;2.90;2.70;;;21.20;58.90;;;;;;5000016;28;20213;-67
2023/06/05 04:48:20;;;;;;;3.00;2.80;;;21.10;58.90;;;;;;4991651;28;20224;-67
2023/06/05 04:50:47;;;;;;;2.70;2.50;;;21.20;58.90;;;;;;4979746;28;20185;-68
2023/06/05 04:53:12;;;;;;;3.45;3.15;;;21.10;58.90;;;;;;4995061;28;20197;-67
2023/06/05 04:55:40;;;;;;;2.90;2.70;;;21.10;58.90;;;;;;4987041;28;20240;-67
2023/06/05 04:58:06;;;;;;;3.08;2.60;;;21.20;59.00;;;;;;4979701;28;20217;-67
2023/06/05 05:00:32;;;;;;;3.30;3.00;;;21.10;59.00;;;;;;4983561;28;20309;-67
2023/06/05 05:03:00;;;;;;;3.00;2.80;;;21.10;58.90;;;;;;4981807;28;20258;-67
2023/06/05 05:05:26;;;;;;;2.80;2.60;;;21.10;59.00;;;;;;4978874;28;20189;-67
2023/06/05 05:07:54;;;;;;;2.80;2.60;;;21.20;59.10;;;;;;4989223;28;20228;-67
2023/06/05 05:10:21;;;;;;;2.80;2.60;;;21.10;59.00;;;;;;4968288;28;20196;-67
2023/06/05 05:12:47;;;;;;;3.17;2.70;;;21.20;59.10;;;;;;4982452;28;20286;-67
2023/06/05 05:15:15;;;;;;;3.78;2.60;;;21.10;59.00;;;;;;4994452;28;20188;-67
2023/06/05 05:17:41;;;;;;;3.00;2.80;;;21.10;59.00;;;;;;4991623;28;20224;-67
2023/06/05 05:20:07;;;;;;;2.95;2.75;;;21.10;59.00;;;;;;4982373;28;20197;-68
2023/06/05 05:22:36;;;;;;;3.17;2.90;;;21.10;59.10;;;;;;4985844;28;20220;-67
2023/06/05 05:25:01;;;;;;;2.70;2.50;;;21.10;59.10;;;;;;4986243;28;20231;-67
2023/06/05 05:30:18;;;;;;;2.88;2.67;;;21.10;59.20;;;;;;4971232;28;20591;-67
2023/06/05 05:32:44;;;;;;;3.00;2.80;;;21.10;59.20;;;;;;4975720;28;20182;-68
2023/06/05 05:35:12;;;;;;;2.85;2.65;;;21.10;59.20;;;;;;4990650;28;20196;-69
2023/06/05 05:37:38;;;;;;;3.15;2.78;;;21.20;59.30;;;;;;4990454;28;20206;-68
2023/06/05 05:40:05;;;;;;;2.83;2.63;;;21.10;59.20;;;;;;4990503;28;20194;-68
2023/06/05 05:42:30;;;;;;;2.95;2.75;;;21.10;59.30;;;;;;4990492;28;20403;-68
2023/06/05 05:44:56;;;;;;;2.78;2.58;;;21.10;59.30;;;;;;4990923;28;20216;-68
2023/06/05 05:47:22;;;;;;;2.95;2.75;;;21.10;59.30;;;;;;4989663;28;20190;-69
2023/06/05 05:49:47;;;;;;;3.03;2.80;;;21.20;59.40;;;;;;4985964;28;20205;-68
2023/06/05 05:52:13;;;;;;;3.50;3.20;;;21.20;59.40;;;;;;4974847;28;20208;-68
2023/06/05 05:54:39;;;;;;;4.68;2.97;;;21.20;59.50;;;;;;4974176;28;20617;-69
2023/06/05 05:57:05;;;;;;;2.83;2.63;;;21.10;59.40;;;;;;4990329;28;20224;-68
2023/06/05 05:59:31;;;;;;;3.22;2.92;;;21.10;59.50;;;;;;4957302;28;20301;-69
2023/06/05 06:01:59;;;;;;;3.00;2.80;;;21.20;59.60;;;;;;4968065;28;20221;-68
2023/06/05 06:04:26;;;;;;;2.70;2.50;;;21.10;59.60;;;;;;4984707;28;20241;-68
2023/06/05 06:06:52;;;;;;;2.67;2.47;;;21.20;59.60;;;;;;4955375;28;20183;-68
2023/06/05 06:09:18;;;;;;;3.20;2.90;;;21.10;59.60;;;;;;4966021;28;20225;-68
2023/06/05 06:11:44;;;;;;;3.50;3.20;;;21.20;59.60;;;;;;4979031;28;20196;-68
2023/06/05 06:14:11;;;;;;;3.05;2.83;;;21.20;59.60;;;;;;4962809;28;20277;-68
2023/06/05 06:16:37;;;;;;;4.00;3.15;;;21.20;59.60;;;;;;4976168;28;20209;-67
2023/06/05 06:19:04;;;;;;;3.33;3.10;;;21.20;59.70;;;;;;4965951;28;20205;-68
2023/06/05 06:21:30;;;;;;;2.97;2.78;;;21.20;59.70;;;;;;4982201;28;20194;-67
2023/06/05 06:23:57;;;;;;;3.10;2.72;;;21.20;59.70;;;;;;4965982;28;20232;-68
2023/06/05 06:26:23;;;;;;;3.10;2.80;;;21.20;59.80;;;;;;4981503;28;20202;-68
2023/06/05 06:28:49;;;;;;;4.20;2.80;;;21.20;59.70;;;;;;4963615;28;20222;-68
2023/06/05 06:31:14;;;;;;;3.30;3.00;;;21.20;59.80;;;;;;4968739;28;20181;-68
2023/06/05 06:33:40;;;;;;;3.38;3.10;;;21.20;59.70;;;;;;4965864;28;20225;-68
2023/06/05 06:36:06;;;;;;;3.47;2.95;;;21.20;59.80;;;;;;4983532;28;20194;-67
2023/06/05 06:38:32;;;;;;;3.60;3.30;;;21.20;59.80;;;;;;4986270;28;20209;-68
2023/06/05 06:40:59;;;;;;;2.88;2.67;;;21.20;59.80;;;;;;4983245;28;20272;-69
2023/06/05 06:43:25;;;;;;;3.40;3.20;;;21.30;60.00;;;;;;4972811;28;20214;-68
2023/06/05 06:46:00;;;;;;;3.15;2.95;;;21.30;60.00;;;;;;4983527;28;20716;-68
2023/06/05 06:48:26;;;;;;;3.33;3.00;;;21.30;60.00;;;;;;4972812;28;20329;-68
2023/06/05 06:50:52;;;;;;;3.33;3.05;;;21.20;60.00;;;;;;4970490;28;20217;-67
2023/06/05 06:53:18;;;;;;;3.72;2.92;;;21.30;60.10;;;;;;4985699;28;20197;-68
2023/06/05 06:55:44;;;;;;;3.40;3.10;;;21.30;60.20;;;;;;4977910;28;20561;-68
2023/06/05 06:58:11;;;;;;;3.28;3.08;;;21.30;60.10;;;;;;4968180;28;20217;-67
2023/06/05 07:00:38;;;;;;;3.28;3.03;;;21.30;60.30;;;;;;4980986;28;20229;-68
2023/06/05 07:03:04;;;;;;;3.25;3.00;;;21.30;60.20;;;;;;4956854;28;20218;-67
2023/06/05 07:05:31;;;;;;;3.50;3.20;;;21.30;60.40;;;;;;4964717;28;20193;-65
2023/06/05 07:08:00;;;;;;;3.80;3.25;;;21.30;60.30;;;;;;4972785;28;20197;-67
2023/06/05 07:10:28;;;;;;;3.13;2.83;;;21.30;60.40;;;;;;4980635;28;20221;-68
2023/06/05 07:12:54;;;;;;;3.45;3.15;;;21.30;60.40;;;;;;4985441;28;20213;-68
2023/06/05 07:15:21;;;;;;;4.13;3.20;;;21.30;60.40;;;;;;4983590;28;20194;-68
2023/06/05 07:17:46;;;;;;;3.67;3.35;;;21.30;60.40;;;;;;4977595;28;20216;-68
2023/06/05 07:20:12;;;;;;;3.72;3.10;;;21.30;60.50;;;;;;4968999;28;20649;-68
2023/06/05 07:22:45;;;;;;;3.63;3.33;;;21.30;60.50;;;;;;4954566;28;20208;-68
2023/06/05 07:25:12;;;;;;;3.53;3.22;;;21.30;60.60;;;;;;4977703;28;20227;-71
2023/06/05 07:27:40;;;;;;;3.65;3.35;;;21.40;60.70;;;;;;4968873;28;20189;-68
2023/06/05 07:30:08;;;;;;;3.63;3.33;;;21.40;60.80;;;;;;4983011;28;20196;-68
2023/06/05 07:32:34;;;;;;;3.22;2.92;;;21.40;60.70;;;;;;4972319;28;20194;-67
2023/06/05 07:35:00;;;;;;;3.42;3.08;;;21.40;60.70;;;;;;4980521;28;20249;-67
2023/06/05 07:37:26;;;;;;;3.60;3.30;;;21.40;60.80;;;;;;4986463;28;20193;-69
2023/06/05 07:39:53;;;;;;;3.42;3.13;;;21.40;60.80;;;;;;4977200;28;20191;-68
2023/06/05 07:42:19;;;;;;;3.83;3.42;;;21.40;60.80;;;;;;4984637;28;20194;-68
2023/06/05 07:44:45;;;;;;;3.95;3.60;;;21.40;60.80;;;;;;4970077;28;20253;-68
2023/06/05 07:47:11;;;;;;;3.45;3.17;;;21.40;60.90;;;;;;4964264;28;20190;-68
2023/06/05 07:49:37;;;;;;;3.72;3.33;;;21.40;60.90;;;;;;4954486;28;20587;-68
2023/06/05 07:52:02;;;;;;;3.53;3.13;;;21.40;60.80;;;;;;4980346;28;20704;-68
2023/06/05 07:54:28;;;;;;;3.63;3.33;;;21.40;60.80;;;;;;4980162;28;20198;-68
2023/06/05 07:56:57;;;;;;;3.20;3.00;;;21.40;60.70;;;;;;4973412;28;20193;-68
2023/06/05 07:59:27;;;;;;;3.20;3.00;;;21.40;60.70;;;;;;4988128;28;20217;-68
2023/06/05 08:01:55;;;;;;;4.70;3.42;;;21.50;60.80;;;;;;4988233;28;20182;-69
2023/06/05 08:04:24;;;;;;;3.90;3.60;;;21.50;60.90;;;;;;4984314;28;20213;-67
2023/06/05 08:06:51;;;;;;;4.35;3.58;;;21.50;60.90;;;;;;4964010;28;20181;-68
2023/06/05 08:09:17;;;;;;;3.53;3.10;;;21.50;60.80;;;;;;4988316;28;20210;-68
2023/06/05 08:11:43;;;;;;;3.92;3.50;;;21.50;60.90;;;;;;4973117;28;20331;-68
2023/06/05 08:14:09;;;;;;;3.70;3.38;;;21.50;60.90;;;;;;4988481;28;20193;-68
2023/06/05 08:16:36;;;;;;;3.47;3.15;;;21.50;60.80;;;;;;4979960;28;20198;-67
2023/06/05 08:19:02;;;;;;;3.90;3.60;;;21.50;60.90;;;;;;4971589;28;20268;-67
2023/06/05 08:21:28;;;;;;;4.03;3.72;;;21.50;60.80;;;;;;4984996;28;20218;-68
2023/06/05 08:23:54;;;;;;;4.15;3.60;;;21.50;60.90;;;;;;4972192;28;20296;-68
2023/06/05 08:26:21;;;;;;;3.22;2.97;;;21.50;60.80;;;;;;4975859;28;20281;-68
2023/06/05 08:28:48;;;;;;;3.60;3.30;;;21.60;60.90;;;;;;4987650;28;20233;-67
2023/06/05 08:31:15;;;;;;;3.63;3.33;;;21.60;60.90;;;;;;4971796;28;20243;-69
2023/06/05 08:33:43;;;;;;;3.05;2.85;;;21.50;60.70;;;;;;4955540;28;20193;-67
2023/06/05 08:36:09;;;;;;;3.80;3.40;;;21.50;60.80;;;;;;4982663;28;20194;-68
2023/06/05 08:38:37;;;;;;;3.67;3.38;;;21.60;60.80;;;;;;4977783;28;20657;-68
2023/06/05 08:41:07;;;;;;;3.55;3.25;;;21.60;60.80;;;;;;4979965;28;20232;-68
2023/06/05 08:43:41;;;;;;;3.65;3.35;;;21.60;60.80;;;;;;4988269;28;20221;-68
2023/06/05 08:46:09;;;;;;;4.03;3.42;;;21.60;60.80;;;;;;4968664;28;20225;-67
2023/06/05 08:48:42;;;;;;;3.40;3.10;;;21.60;60.90;;;;;;4953215;28;20233;-68
2023/06/05 08:51:12;;;;;;;4.00;3.47;;;21.60;61.00;;;;;;4971807;28;20240;-68
2023/06/05 08:53:40;;;;;;;3.55;3.25;;;21.60;60.90;;;;;;4979934;28;20298;-68
2023/06/05 08:56:10;;;;;;;4.10;3.30;;;21.60;60.90;;;;;;4978144;28;20225;-67
2023/06/05 08:58:37;;;;;;;4.13;3.72;;;21.60;61.00;;;;;;4981335;28;20292;-68
2023/06/05 09:01:03;;;;;;;4.03;3.65;;;21.70;61.10;;;;;;4988355;28;20202;-68
2023/06/05 09:03:29;;;;;;;3.78;3.40;;;21.70;61.10;;;;;;4991279;28;20221;-70
2023/06/05 09:05:55;;;;;;;3.30;3.10;;;21.60;61.00;;;;;;4972073;28;20193;-68
2023/06/05 09:08:33;;;;;;;3.30;3.00;;;21.60;61.00;;;;;;4970810;28;20210;-68
2023/06/05 09:11:29;;;;;;;3.63;3.35;;;21.60;61.00;;;;;;4967837;28;20653;-68
2023/06/05 09:14:00;;;;;;;3.88;3.22;;;21.70;61.10;;;;;;4991504;28;20186;-68
2023/06/05 09:16:43;;;;;;;4.18;3.80;;;21.70;61.10;;;;;;4975959;28;20193;-68
2023/06/05 09:19:13;;;;;;;3.95;3.53;;;21.70;61.10;;;;;;4985841;28;20210;-68
2023/06/05 09:21:39;;;;;;;4.03;3.30;;;21.70;61.10;;;;;;4987751;28;20200;-68
2023/06/05 09:24:15;;;;;;;3.58;3.10;;;21.70;61.10;;;;;;4971675;28;20690;-68
2023/06/05 09:26:59;;;;;;;3.50;3.20;;;21.70;61.10;;;;;;4985822;28;20190;-68
2023/06/05 09:29:31;;;;;;;4.35;3.30;;;21.70;61.20;;;;;;4954680;28;20217;-68
2023/06/05 09:32:00;;;;;;;4.03;3.22;;;21.70;61.20;;;;;;4964627;28;20274;-68
2023/06/05 09:34:35;;;;;;;4.03;3.60;;;21.70;61.20;;;;;;4971665;28;20572;-65
2023/06/05 09:37:05;;;;;;;4.72;3.25;;;21.70;61.20;;;;;;4963717;28;20190;-67
2023/06/05 09:39:34;;;;;;;3.78;3.47;;;21.60;61.10;;;;;;4984163;28;20210;-68
2023/06/05 09:42:00;;;;;;;3.80;3.50;;;21.70;61.10;;;;;;4967152;28;20189;-68
2023/06/05 09:44:27;;;;;;;4.03;3.72;;;21.70;61.20;;;;;;4972760;28;20221;-68
2023/06/05 09:47:00;;;;;;;5.25;3.47;;;21.70;61.20;;;;;;4990094;28;20186;-68
2023/06/05 09:49:32;;;;;;;4.15;3.75;;;21.60;61.10;;;;;;4982843;28;20301;-66
2023/06/05 09:52:01;;;;;;;3.70;3.30;;;21.70;61.20;;;;;;4971329;28;20183;-68
2023/06/05 09:54:29;;;;;;;3.97;3.67;;;21.70;61.20;;;;;;4978593;28;20201;-68
2023/06/05 09:57:04;;;;;;;3.90;3.60;;;21.70;61.10;;;;;;4971336;28;20187;-68
2023/06/05 09:59:45;;;;;;;3.83;3.17;;;21.70;61.10;;;;;;4978577;28;20216;-68
2023/06/05 10:02:16;;;;;;;3.85;3.55;;;21.70;61.90;;;;;;4990555;28;20272;-68
2023/06/05 10:05:07;;;;;;;3.40;3.10;;;21.70;60.90;;;;;;4988228;28;20229;-68
2023/06/05 10:07:35;;;;;;;4.28;3.88;;;21.70;60.80;;;;;;4989550;28;20193;-70
2023/06/05 10:10:02;;;;;;;4.47;4.07;;;21.70;60.90;;;;;;4975098;28;20277;-67
2023/06/05 10:12:30;;;;;;;4.40;4.00;;;21.70;60.90;;;;;;4983060;28;20286;-66
2023/06/05 10:14:57;;;;;;;4.20;3.78;;;21.70;61.00;;;;;;4973768;28;20785;-68
2023/06/05 10:17:24;;;;;;;4.35;3.47;;;21.70;60.90;;;;;;4973783;28;20185;-68
2023/06/05 10:19:50;;;;;;;5.80;3.83;;;21.70;61.00;;;;;;4971506;28;20205;-68
2023/06/05 10:22:21;;;;;;;4.10;3.67;;;21.80;61.00;;;;;;4970963;28;20199;-68
2023/06/05 10:24:56;;;;;;;5.13;3.63;;;21.70;60.90;;;;;;4986636;28;20217;-68
2023/06/05 10:27:38;;;;;;;4.28;3.55;;;21.70;61.10;;;;;;4963585;28;20190;-68
2023/06/05 10:30:27;;;;;;;3.95;3.55;;;21.70;60.90;;;;;;4981713;28;20224;-68
2023/06/05 10:33:31;;;;;;;6.65;3.60;;;21.70;61.50;;;;;;4979139;28;20213;-68
2023/06/05 10:36:24;;;;;;;4.10;3.55;;;21.80;60.90;;;;;;4970349;28;20201;-68
2023/06/05 10:38:51;;;;;;;4.07;3.70;;;21.70;60.80;;;;;;4978483;28;20210;-68
2023/06/05 10:41:18;;;;;;;6.15;4.10;;;21.80;61.00;;;;;;4978454;28;20194;-68
2023/06/05 10:43:49;;;;;;;6.40;4.35;;;21.70;60.80;;;;;;4967986;28;20246;-68
2023/06/05 10:46:27;;;;;;;4.95;3.80;;;21.70;60.90;;;;;;4983771;28;20563;-67
2023/06/05 10:49:07;;;;;;;3.72;3.42;;;21.80;60.90;;;;;;4963913;28;20210;-68
2023/06/05 10:51:42;;;;;;;4.28;3.88;;;21.80;60.90;;;;;;4966688;28;20199;-68
2023/06/05 10:54:16;;;;;;;4.10;3.70;;;21.70;60.90;;;;;;4950486;28;20185;-68
2023/06/05 10:56:51;;;;;;;5.22;4.18;;;21.70;60.80;;;;;;4972714;28;20281;-68
2023/06/05 10:59:21;;;;;;;4.85;3.55;;;21.80;61.00;;;;;;4980052;28;20218;-68
2023/06/05 11:02:09;;;;;;;5.05;4.07;;;21.80;61.00;;;;;;4971453;28;20285;-68
2023/06/05 11:04:46;;;;;;;6.63;4.50;;;21.70;60.90;;;;;;4972993;28;20303;-68
2023/06/05 11:07:28;;;;;;;4.35;3.50;;;21.80;60.80;;;;;;4982981;28;20197;-64
2023/06/05 11:10:03;;;;;;;5.13;4.07;;;21.80;60.90;;;;;;4972934;28;20197;-68
2023/06/05 11:12:35;;;;;;;4.20;3.90;;;21.80;60.90;;;;;;4957088;28;20193;-69
2023/06/05 11:15:02;;;;;;;4.97;4.20;;;21.80;61.00;;;;;;4972981;28;20308;-68
2023/06/05 11:17:34;;;;;;;4.72;4.05;;;21.80;60.80;;;;;;4988732;28;20669;-67
2023/06/05 11:20:05;;;;;;;4.10;3.70;;;21.80;60.90;;;;;;4972833;28;20186;-68
2023/06/05 11:22:31;;;;;;;4.22;3.88;;;21.80;60.90;;;;;;4986031;28;20198;-68
2023/06/05 11:25:21;;;;;;;4.88;4.00;;;21.80;61.00;;;;;;4988344;28;20256;-67
2023/06/05 11:27:53;;;;;;;4.88;3.85;;;21.80;61.00;;;;;;4972451;28;20210;-65
2023/06/05 11:30:22;;;;;;;5.00;4.18;;;21.80;61.00;;;;;;4983573;28;20186;-67
2023/06/05 11:32:52;;;;;;;4.45;4.05;;;21.80;61.00;;;;;;4970470;28;20221;-67
2023/06/05 11:35:21;;;;;;;6.80;4.22;;;21.80;61.00;;;;;;4972520;28;20235;-69
2023/06/05 11:37:47;;;;;;;5.70;4.38;;;21.90;61.00;;;;;;4977197;28;20218;-68
2023/06/05 11:40:25;;;;;;;4.47;3.92;;;21.80;60.80;;;;;;4978734;28;20193;-68
2023/06/05 11:42:51;;;;;;;6.28;3.90;;;21.80;60.60;;;;;;4985245;28;20189;-68
2023/06/05 11:45:16;;;;;;;5.07;4.20;;;21.80;60.70;;;;;;4969259;28;20187;-68
2023/06/05 11:47:42;;;;;;;4.72;3.88;;;21.90;60.70;;;;;;4969437;28;20688;-68
2023/06/05 11:50:13;;;;;;;4.68;3.88;;;21.80;60.70;;;;;;4972266;28;20189;-69
2023/06/05 11:52:40;;;;;;;5.72;3.85;;;21.90;60.60;;;;;;4972640;28;20216;-68
2023/06/05 11:55:21;;;;;;;5.97;3.95;;;21.90;60.70;;;;;;4988554;28;20212;-68
2023/06/05 11:57:52;;;;;;;5.82;3.90;;;21.90;60.90;;;;;;4979142;28;20583;-67
2023/06/05 12:00:25;;;;;;;4.28;3.83;;;21.80;60.80;;;;;;4974351;28;20198;-68
2023/06/05 12:02:52;;;;;;;4.10;3.70;;;21.80;60.90;;;;;;4987067;28;20201;-68
2023/06/05 12:05:17;;;;;;;7.50;4.05;;;21.80;60.50;;;;;;4988506;28;20217;-69
2023/06/05 12:07:43;;;;;;;3.95;3.60;;;21.90;60.90;;;;;;4987939;28;20299;-69
2023/06/05 12:10:10;;;;;;;4.22;3.83;;;21.90;61.00;;;;;;4969718;28;20193;-68
2023/06/05 12:12:56;;;;;;;5.00;3.97;;;21.90;60.90;;;;;;4968467;28;20224;-68
2023/06/05 12:15:22;;;;;;;5.63;4.43;;;21.90;60.70;;;;;;4979828;28;20202;-68
2023/06/05 12:17:53;;;;;;;7.40;4.10;;;21.90;60.80;;;;;;4972076;28;20214;-68
2023/06/05 12:20:20;;;;;;;5.53;4.07;;;21.90;60.70;;;;;;4968003;28;20579;-68
2023/06/05 12:22:47;;;;;;;5.20;3.80;;;21.90;60.60;;;;;;4977692;28;20324;-68
2023/06/05 12:25:21;;;;;;;5.70;3.58;;;21.90;60.60;;;;;;4975997;28;20214;-68
2023/06/05 12:27:49;;;;;;;5.53;3.72;;;21.90;61.50;;;;;;4983099;28;20217;-68
2023/06/05 12:30:16;;;;;;;4.10;3.70;;;21.90;60.80;;;;;;4962515;28;20756;-68
2023/06/05 12:32:46;;;;;;;4.03;3.63;;;21.90;60.70;;;;;;4988586;28;20200;-68
2023/06/05 12:35:27;;;;;;;4.32;3.70;;;21.90;60.70;;;;;;4965347;28;20197;-68
2023/06/05 12:38:00;;;;;;;4.28;3.88;;;21.90;60.70;;;;;;4972590;28;20205;-68
2023/06/05 12:40:25;;;;;;;4.80;4.38;;;21.90;60.80;;;;;;4983241;28;20205;-68
2023/06/05 12:42:51;;;;;;;4.15;3.75;;;21.90;60.90;;;;;;4980291;28;20193;-68
2023/06/05 12:45:17;;;;;;;4.68;4.18;;;21.90;60.80;;;;;;4962245;28;20658;-69
2023/06/05 12:47:43;;;;;;;7.97;4.13;;;21.90;60.70;;;;;;4975408;28;20261;-68
2023/06/05 12:50:12;;;;;;;4.28;3.88;;;21.90;60.70;;;;;;4991632;28;20190;-68
2023/06/05 12:52:42;;;;;;;5.38;3.70;;;21.80;60.20;;;;;;4975752;28;20272;-68
2023/06/05 12:55:09;;;;;;;6.63;3.42;;;21.90;60.10;;;;;;4984088;28;20193;-68
2023/06/05 12:57:35;;;;;;;4.95;3.50;;;21.80;60.10;;;;;;4988596;28;20206;-68
2023/06/05 13:00:12;;;;;;;4.10;3.70;;;21.90;60.20;;;;;;4988144;28;20201;-68